Phaethon — SVAM2 — position and weather

sailwx.info

Track history (hours):
 
Tides and Currents Weather Stations Pressure Air Temp Water Temp Dewpoint Dewpoint Depression Visibility Wind Speed Wind Dir Waves Ship Positions

Phaethon

Last reported at 2016-May-01 10:22 UTC. Time now 2016-May-06 14:54 UTC.
Position N 07°35' W 014°21'.

Length 274 m; draft 9.6 m.

Type: Tanker. MMSI: 240836000.

Date/timePositionNaut miles runAvg speedWind from/ knotsBaromVisibWave heightAir tempDewpointWater temp
2016-May-01 10:22N 07°35' W 014°21'3215.7
2016-May-01 08:19N 07°57' W 014°45'1715.7
2016-May-01 07:16N 08°08' W 014°57'1315.8
2016-May-01 06:26N 08°17' W 015°07'1415.7
2016-May-01 05:33N 08°27' W 015°17'2215.8
2016-May-01 04:11N 08°41' W 015°33'4215.9
2016-May-01 01:34N 09°09' W 016°04'1615.8
2016-May-01 00:33N 09°20' W 016°16'22815.0
2016-Apr-30 09:21N 12°42' W 018°03'1315.8
2016-Apr-30 08:33N 12°55' W 018°03'1615.9
2016-Apr-30 07:33N 13°10' W 018°02'1615.8
2016-Apr-30 06:33N 13°26' W 018°02'3716.3
2016-Apr-30 04:16N 14°03' W 018°02'1216.4
2016-Apr-30 03:33N 14°15' W 018°02'1616.3
2016-Apr-30 02:33N 14°31' W 018°02'1616.0
2016-Apr-30 01:33N 14°47' W 018°02'1616.1
2016-Apr-30 00:34N 15°03' W 018°02'1715.9
2016-Apr-29 23:28N 15°21' W 018°02'1415.8
2016-Apr-29 22:33N 15°35' W 018°02'1615.9
2016-Apr-29 21:32N 15°51' W 018°03'  
2016-Apr-27 14:08N 29°21' W 014°14'915.0
2016-Apr-27 13:34N 29°28' W 014°07'1514.9
2016-Apr-27 12:32N 29°39' W 013°55'1414.7
2016-Apr-27 11:33N 29°49' W 013°43'4614.7
2016-Apr-27 08:26N 30°21' W 013°06'1615.0
2016-Apr-27 07:24N 30°32' W 012°52'8814.7
2016-Apr-27 01:26N 31°34' W 011°40'1414.4
2016-Apr-27 00:28N 31°43' W 011°28'9014.8
2016-Apr-26 18:23N 32°46' W 010°13'1215.0
2016-Apr-26 17:33N 32°55' W 010°02'1914.7
2016-Apr-26 16:16N 33°08' W 009°46'3015.1
2016-Apr-26 14:16N 33°29' W 009°20'2615.3
2016-Apr-26 12:33N 33°48' W 008°58'21415.3
2016-Apr-25 22:33N 35°59' W 005°30'9 8.7
2016-Apr-25 21:33N 36°05' W 005°23'1 0.1
2016-Apr-25 05:33N 36°04' W 005°21'5 4.5
2016-Apr-25 04:33N 36°02' W 005°16'21214.1
2016-Apr-24 13:30N 37°12' W 001°06'1515.3
2016-Apr-24 12:33N 37°20' W 000°52'1515.1
2016-Apr-24 11:33N 37°30' W 000°37'1514.8
2016-Apr-24 10:33N 37°42' W 000°26'1514.9
2016-Apr-24 09:33N 37°55' W 000°17'  
Track history (hours):
 
Tides and Currents Weather Stations Pressure Air Temp Water Temp Dewpoint Dewpoint Depression Visibility Wind Speed Wind Dir Waves Ship Positions

Phaethon

Last reported at 2016-May-01 10:22 UTC. Time now 2016-May-06 14:54 UTC.
Position N 07°35' W 014°21'.

Length 274 m; draft 9.6 m.

Type: Tanker. MMSI: 240836000.

Date/timePositionNaut miles runAvg speedWind from/ knotsBaromVisibWave heightAir tempDewpointWater temp
2016-May-01 10:22N 07°35' W 014°21'3215.7
2016-May-01 08:19N 07°57' W 014°45'1715.7
2016-May-01 07:16N 08°08' W 014°57'1315.8
2016-May-01 06:26N 08°17' W 015°07'1415.7
2016-May-01 05:33N 08°27' W 015°17'2215.8
2016-May-01 04:11N 08°41' W 015°33'4215.9
2016-May-01 01:34N 09°09' W 016°04'1615.8
2016-May-01 00:33N 09°20' W 016°16'22815.0
2016-Apr-30 09:21N 12°42' W 018°03'1315.8
2016-Apr-30 08:33N 12°55' W 018°03'1615.9
2016-Apr-30 07:33N 13°10' W 018°02'1615.8
2016-Apr-30 06:33N 13°26' W 018°02'3716.3
2016-Apr-30 04:16N 14°03' W 018°02'1216.4
2016-Apr-30 03:33N 14°15' W 018°02'1616.3
2016-Apr-30 02:33N 14°31' W 018°02'1616.0
2016-Apr-30 01:33N 14°47' W 018°02'1616.1
2016-Apr-30 00:34N 15°03' W 018°02'1715.9
2016-Apr-29 23:28N 15°21' W 018°02'1415.8
2016-Apr-29 22:33N 15°35' W 018°02'1615.9
2016-Apr-29 21:32N 15°51' W 018°03'  
2016-Apr-27 14:08N 29°21' W 014°14'915.0
2016-Apr-27 13:34N 29°28' W 014°07'1514.9
2016-Apr-27 12:32N 29°39' W 013°55'1414.7
2016-Apr-27 11:33N 29°49' W 013°43'4614.7
2016-Apr-27 08:26N 30°21' W 013°06'1615.0
2016-Apr-27 07:24N 30°32' W 012°52'8814.7
2016-Apr-27 01:26N 31°34' W 011°40'1414.4
2016-Apr-27 00:28N 31°43' W 011°28'9014.8
2016-Apr-26 18:23N 32°46' W 010°13'1215.0
2016-Apr-26 17:33N 32°55' W 010°02'1914.7
2016-Apr-26 16:16N 33°08' W 009°46'3015.1
2016-Apr-26 14:16N 33°29' W 009°20'2615.3
2016-Apr-26 12:33N 33°48' W 008°58'21415.3
2016-Apr-25 22:33N 35°59' W 005°30'9 8.7
2016-Apr-25 21:33N 36°05' W 005°23'1 0.1
2016-Apr-25 05:33N 36°04' W 005°21'5 4.5
2016-Apr-25 04:33N 36°02' W 005°16'21214.1
2016-Apr-24 13:30N 37°12' W 001°06'1515.3
2016-Apr-24 12:33N 37°20' W 000°52'1515.1
2016-Apr-24 11:33N 37°30' W 000°37'1514.8
2016-Apr-24 10:33N 37°42' W 000°26'1514.9
2016-Apr-24 09:33N 37°55' W 000°17'  

Dump ship's entire track history